This is the latest recevied weather packets stored in our database for station/object OE-11307. If no packets are shown the sender has not sent any weather packets the latest 10 day(s).
| Time | Temp. | Humidity | Pressure | Rain* | Wind** | Luminosity | Snow |
|---|---|---|---|---|---|---|---|
| 1787796313 | 16.11° C | 68% | 853.4 hPa | 0 mm | - | 0 W/m² | - |
| 1787795714 | 17.22° C | 66% | 853.5 hPa | 0 mm | - | 0 W/m² | - |
| 1787794887 | 17.22° C | 67% | 853.5 hPa | 0 mm | - | 0 W/m² | - |
| 1787794514 | 16.67° C | 69% | 853.4 hPa | 0 mm | - | 0 W/m² | - |
| 1787793914 | 16.67° C | 68% | 853.4 hPa | 0 mm | - | 0 W/m² | - |
| 1787793087 | 16.67° C | 69% | 853.4 hPa | 0 mm | - | 0 W/m² | - |
| 1787792714 | 16.11° C | 72% | 853.3 hPa | 0 mm | - | 0 W/m² | - |
| 1787792114 | 16.67° C | 70% | 853.3 hPa | 0 mm | - | 0 W/m² | - |
| 1787791287 | 16.11° C | 72% | 853.3 hPa | 0 mm | - | 0 W/m² | - |
| 1787790914 | 16.67° C | 71% | 853.4 hPa | 0 mm | - | 0 W/m² | - |
| 1787790314 | 15.56° C | 74% | 853.3 hPa | 0 mm | - | 0 W/m² | - |
| 1787789486 | 17.22° C | 70% | 853.5 hPa | 0 mm | - | 0 W/m² | - |
| 1787789114 | 17.22° C | 71% | 853.5 hPa | 0 mm | - | 0 W/m² | - |
| 1787788514 | 16.67° C | 72% | 853.5 hPa | 0 mm | - | 0 W/m² | - |
| 1787787687 | 16.11° C | 75% | 853.3 hPa | 0 mm | - | 0 W/m² | - |
| 1787787314 | 16.67° C | 73% | 853.4 hPa | 0 mm | - | 0 W/m² | - |
| 1787786714 | 16.11° C | 74% | 853.4 hPa | 0 mm | - | 0 W/m² | - |
| 1787786113 | 16.11° C | 74% | 853.4 hPa | 0 mm | - | 0 W/m² | - |
| 1787785514 | 17.22° C | 71% | 853.4 hPa | 0 mm | - | 0 W/m² | - |
| 1787784914 | 16.67° C | 73% | 853.2 hPa | 0 mm | - | 0 W/m² | - |
| 1787784087 | 16.67° C | 73% | 853.1 hPa | 0 mm | - | 0 W/m² | - |
| 1787783714 | 17.22° C | 72% | 853.2 hPa | 0 mm | - | 0 W/m² | - |
| 1787783113 | 16.11° C | 77% | 853.1 hPa | 0 mm | - | 0 W/m² | - |
| 1787782288 | 16.11° C | 76% | 853.2 hPa | 0 mm | - | 0 W/m² | - |
| 1787781914 | 16.67° C | 77% | 853.2 hPa | 0 mm | - | 0 W/m² | - |
* Rain latest hour (hover to see other rain measurements)
** Current wind speed in m/s (hover to see current wind gust speed)